createdAt,value
2023-02-19T00:00:13.138Z,3.60
2023-02-19T00:02:40.169Z,3.72
2023-02-19T00:05:06.842Z,3.70
2023-02-19T00:07:33.343Z,4.45
2023-02-19T00:09:59.882Z,4.32
2023-02-19T00:12:26.218Z,5.00
2023-02-19T00:14:52.663Z,4.25
2023-02-19T00:17:19.137Z,4.63
2023-02-19T00:19:45.554Z,3.92
2023-02-19T00:22:12.018Z,4.20
2023-02-19T00:24:38.851Z,4.68
2023-02-19T00:27:05.548Z,4.20
2023-02-19T00:29:32.236Z,4.40
2023-02-19T00:31:58.710Z,4.47
2023-02-19T00:34:25.258Z,3.90
2023-02-19T00:36:51.621Z,4.93
2023-02-19T00:39:18.527Z,4.10
2023-02-19T00:41:45.344Z,4.47
2023-02-19T00:44:13.051Z,4.72
2023-02-19T00:46:42.600Z,3.95
2023-02-19T00:49:13.510Z,4.78
2023-02-19T00:54:06.591Z,4.75
2023-02-19T00:56:33.726Z,4.82
2023-02-19T00:59:00.641Z,3.88
2023-02-19T01:01:28.356Z,3.97
2023-02-19T01:03:55.185Z,3.88
2023-02-19T01:06:22.157Z,4.05
2023-02-19T01:08:49.034Z,3.95
2023-02-19T01:11:16.580Z,4.28
2023-02-19T01:13:43.645Z,3.60
2023-02-19T01:16:14.163Z,5.00
2023-02-19T01:18:40.674Z,3.55
2023-02-19T01:21:10.098Z,4.63
2023-02-19T01:23:37.271Z,4.97
2023-02-19T01:26:05.715Z,4.68
2023-02-19T01:28:32.276Z,4.00
2023-02-19T01:31:07.398Z,3.55
2023-02-19T01:33:34.978Z,3.83
2023-02-19T01:36:04.970Z,3.47
2023-02-19T01:38:31.591Z,3.53
2023-02-19T01:41:00.840Z,2.35
2023-02-19T01:43:28.135Z,2.75
2023-02-19T01:45:54.896Z,2.60
2023-02-19T01:48:27.517Z,2.53
2023-02-19T01:50:59.210Z,2.50
2023-02-19T01:53:31.085Z,2.60
2023-02-19T01:55:59.834Z,2.22
2023-02-19T01:58:30.683Z,2.28
2023-02-19T02:03:25.262Z,2.20
2023-02-19T02:06:17.389Z,1.85
2023-02-19T02:08:43.981Z,2.30
2023-02-19T02:11:11.189Z,1.92
2023-02-19T02:13:39.911Z,2.28
2023-02-19T02:16:23.770Z,2.30
2023-02-19T02:19:18.308Z,2.25
2023-02-19T02:22:00.301Z,2.40
2023-02-19T02:24:42.258Z,2.03
2023-02-19T02:27:17.773Z,2.20
2023-02-19T02:30:31.517Z,1.88
2023-02-19T02:33:11.215Z,2.20
2023-02-19T02:35:48.256Z,2.08
2023-02-19T02:38:17.033Z,1.90
2023-02-19T02:40:44.928Z,2.38
2023-02-19T02:43:13.225Z,2.53
2023-02-19T02:45:40.219Z,2.85
2023-02-19T02:48:24.742Z,2.70
2023-02-19T02:51:06.551Z,2.38
2023-02-19T02:53:46.437Z,2.72
2023-02-19T02:56:15.686Z,2.55
2023-02-19T02:58:44.607Z,2.60
2023-02-19T03:01:16.657Z,2.90
2023-02-19T03:03:47.933Z,2.92
2023-02-19T03:06:18.706Z,3.17
2023-02-19T03:08:56.700Z,2.72
2023-02-19T03:11:23.576Z,2.65
2023-02-19T03:13:59.458Z,2.83
2023-02-19T03:16:34.952Z,2.55
2023-02-19T03:19:01.685Z,2.63
2023-02-19T03:21:30.139Z,2.97
2023-02-19T03:23:58.040Z,2.78
2023-02-19T03:26:26.142Z,2.75
2023-02-19T03:28:53.907Z,2.35
2023-02-19T03:31:25.025Z,2.33
2023-02-19T03:33:56.159Z,2.53
2023-02-19T03:36:27.777Z,2.67
2023-02-19T03:39:02.920Z,2.60
2023-02-19T03:41:39.666Z,2.72
2023-02-19T03:44:18.361Z,2.97
2023-02-19T03:47:04.718Z,3.03
2023-02-19T03:49:47.224Z,2.70
2023-02-19T03:52:27.710Z,2.95
2023-02-19T03:55:20.471Z,3.13
2023-02-19T03:57:56.420Z,3.15
2023-02-19T04:00:29.983Z,3.10
2023-02-19T04:03:07.880Z,3.92
2023-02-19T04:05:40.331Z,3.00
2023-02-19T04:08:14.014Z,2.92
2023-02-19T04:10:41.673Z,2.72
2023-02-19T04:13:16.905Z,3.05
2023-02-19T04:15:46.105Z,2.85
2023-02-19T04:18:28.688Z,2.85
2023-02-19T04:20:57.118Z,2.72
2023-02-19T04:23:28.094Z,2.88
2023-02-19T04:25:59.191Z,2.45
2023-02-19T04:28:25.920Z,2.47
2023-02-19T04:30:52.528Z,2.25
2023-02-19T04:33:19.228Z,2.40
2023-02-19T04:35:45.645Z,2.30
2023-02-19T04:38:12.471Z,1.88
2023-02-19T04:40:39.043Z,2.55
2023-02-19T04:43:05.533Z,2.10
2023-02-19T04:45:32.033Z,2.15
2023-02-19T04:47:58.697Z,2.40
2023-02-19T04:50:25.817Z,1.98
2023-02-19T04:52:52.579Z,1.85
2023-02-19T04:55:19.038Z,1.90
2023-02-19T04:57:45.472Z,1.60
2023-02-19T05:00:12.427Z,1.50
2023-02-19T05:02:38.845Z,1.60
2023-02-19T05:05:05.411Z,1.45
2023-02-19T05:07:31.950Z,1.13
2023-02-19T05:09:58.464Z,1.10
2023-02-19T05:12:25.012Z,0.90
2023-02-19T05:14:52.059Z,1.35
2023-02-19T05:17:18.499Z,0.98
2023-02-19T05:19:45.168Z,0.75
2023-02-19T05:22:11.818Z,0.80
2023-02-19T05:24:38.266Z,0.88
2023-02-19T05:27:04.992Z,0.80
2023-02-19T05:29:32.145Z,0.73
2023-02-19T05:31:59.153Z,1.02
2023-02-19T05:34:25.715Z,0.80
2023-02-19T05:36:52.083Z,0.90
2023-02-19T05:39:18.764Z,0.50
2023-02-19T05:41:45.145Z,0.40
2023-02-19T05:44:11.601Z,0.50
2023-02-19T05:46:38.136Z,0.60
2023-02-19T05:49:04.914Z,0.70
2023-02-19T05:51:32.366Z,0.68
2023-02-19T05:53:58.961Z,0.43
2023-02-19T05:56:41.408Z,0.55
2023-02-19T05:59:16.234Z,0.60
2023-02-19T06:01:43.036Z,0.63
2023-02-19T06:04:11.270Z,0.60
2023-02-19T06:06:38.310Z,0.40
2023-02-19T06:09:05.945Z,0.43
2023-02-19T06:11:33.631Z,0.40
2023-02-19T06:14:00.259Z,0.73
2023-02-19T06:16:27.032Z,0.70
2023-02-19T06:18:53.493Z,0.50
2023-02-19T06:21:20.584Z,0.50
2023-02-19T06:23:48.502Z,0.50
2023-02-19T06:26:23.694Z,0.35
2023-02-19T06:28:51.906Z,0.30
2023-02-19T06:31:19.567Z,0.30
2023-02-19T06:33:46.587Z,0.20
2023-02-19T06:36:16.836Z,0.38
2023-02-19T06:38:44.061Z,0.30
2023-02-19T06:41:11.910Z,0.30
2023-02-19T06:43:42.442Z,0.20
2023-02-19T06:46:09.102Z,0.30
2023-02-19T06:48:35.907Z,0.30
2023-02-19T06:51:03.131Z,0.43
2023-02-19T06:53:29.795Z,0.50
2023-02-19T06:56:04.241Z,0.70
2023-02-19T06:58:31.205Z,0.30
2023-02-19T07:00:57.839Z,0.20
2023-02-19T07:03:24.651Z,0.30
2023-02-19T07:05:51.536Z,0.30
2023-02-19T07:08:18.226Z,0.30
2023-02-19T07:10:45.937Z,0.30
2023-02-19T07:13:13.854Z,0.40
2023-02-19T07:15:40.289Z,0.30
2023-02-19T07:18:06.693Z,0.60
2023-02-19T07:20:33.394Z,0.50
2023-02-19T07:22:59.896Z,0.68
2023-02-19T07:25:27.663Z,0.43
2023-02-19T07:27:55.169Z,0.50
2023-02-19T07:30:21.685Z,0.35
2023-02-19T07:32:48.300Z,0.40
2023-02-19T07:35:14.978Z,0.40
2023-02-19T07:37:43.720Z,0.35
2023-02-19T07:40:10.747Z,0.40
2023-02-19T07:42:37.240Z,0.52
2023-02-19T07:45:04.038Z,0.70
2023-02-19T07:47:30.664Z,0.52
2023-02-19T07:49:59.024Z,0.43
2023-02-19T07:52:25.564Z,0.50
2023-02-19T07:54:52.026Z,0.40
2023-02-19T07:57:18.507Z,0.40
2023-02-19T07:59:45.159Z,0.40
2023-02-19T08:02:19.879Z,0.47
2023-02-19T08:04:49.408Z,0.55
2023-02-19T08:07:15.939Z,0.60
2023-02-19T08:09:42.659Z,0.60
2023-02-19T08:12:11.726Z,0.80
2023-02-19T08:14:38.484Z,0.88
2023-02-19T08:17:04.958Z,0.90
2023-02-19T08:19:31.601Z,1.20
2023-02-19T08:21:58.167Z,1.00
2023-02-19T08:24:24.689Z,0.88
2023-02-19T08:26:51.439Z,0.90
2023-02-19T08:29:18.042Z,0.70
2023-02-19T08:31:44.619Z,1.10
2023-02-19T08:34:11.174Z,0.90
2023-02-19T08:36:38.118Z,0.90
2023-02-19T08:39:04.761Z,0.77
2023-02-19T08:41:31.191Z,0.60
2023-02-19T08:43:57.610Z,0.80
2023-02-19T08:46:24.206Z,0.77
2023-02-19T08:48:50.708Z,0.80
2023-02-19T08:51:17.428Z,0.70
2023-02-19T08:53:44.292Z,0.90
2023-02-19T08:56:13.452Z,0.80
2023-02-19T08:58:42.021Z,0.70
2023-02-19T09:01:14.579Z,0.57
2023-02-19T09:03:41.802Z,0.60
2023-02-19T09:06:11.765Z,0.63
2023-02-19T09:08:38.364Z,0.70
2023-02-19T09:11:06.112Z,0.60
2023-02-19T09:13:32.488Z,0.70
2023-02-19T09:15:59.111Z,0.80
2023-02-19T09:18:26.107Z,0.60
2023-02-19T09:20:52.686Z,0.77
2023-02-19T09:23:19.151Z,0.70
2023-02-19T09:25:45.629Z,0.82
2023-02-19T09:28:12.139Z,0.70
2023-02-19T09:30:38.559Z,0.70
2023-02-19T09:33:06.022Z,0.65
2023-02-19T09:35:32.766Z,0.60
2023-02-19T09:38:00.661Z,0.73
2023-02-19T09:40:27.159Z,0.70
2023-02-19T09:42:53.732Z,0.60
2023-02-19T09:45:25.214Z,0.60
2023-02-19T09:47:57.360Z,0.70
2023-02-19T09:50:45.495Z,0.65
2023-02-19T09:53:25.194Z,0.80
2023-02-19T09:55:52.728Z,0.88
2023-02-19T09:58:25.782Z,1.10
2023-02-19T10:00:54.964Z,0.77
2023-02-19T10:03:44.856Z,0.98
2023-02-19T10:06:19.880Z,0.95
2023-02-19T10:08:48.688Z,1.10
2023-02-19T10:11:15.985Z,0.88
2023-02-19T10:14:06.069Z,0.77
2023-02-19T10:16:33.764Z,0.87
2023-02-19T10:19:00.948Z,0.90
2023-02-19T10:21:28.207Z,1.00
2023-02-19T10:23:59.989Z,0.70
2023-02-19T10:26:26.501Z,1.17
2023-02-19T10:28:53.798Z,1.17
2023-02-19T10:31:24.656Z,1.08
2023-02-19T10:33:57.142Z,1.40
2023-02-19T10:36:31.635Z,1.30
2023-02-19T10:39:00.330Z,1.10
2023-02-19T10:41:27.854Z,0.80
2023-02-19T10:44:18.774Z,1.15
2023-02-19T10:49:35.986Z,1.10
2023-02-19T10:52:30.370Z,0.90
2023-02-19T10:55:13.894Z,1.42
2023-02-19T10:57:41.026Z,1.23
2023-02-19T11:00:29.316Z,1.25
2023-02-19T11:03:19.961Z,1.05
2023-02-19T11:06:03.149Z,1.00
2023-02-19T11:08:31.099Z,0.95
2023-02-19T11:10:57.713Z,1.10
2023-02-19T11:13:30.184Z,1.05
2023-02-19T11:15:57.840Z,0.90
2023-02-19T11:18:32.919Z,1.20
2023-02-19T11:21:05.355Z,1.02
2023-02-19T11:23:35.543Z,1.10
2023-02-19T11:26:06.158Z,1.00
2023-02-19T11:28:44.735Z,1.10
2023-02-19T11:31:32.259Z,1.05
2023-02-19T11:34:02.642Z,1.02
2023-02-19T11:36:32.527Z,1.17
2023-02-19T11:39:07.997Z,0.80
2023-02-19T11:42:11.533Z,1.05
2023-02-19T11:44:52.083Z,0.93
2023-02-19T11:47:53.106Z,1.10
2023-02-19T11:53:31.281Z,1.00
2023-02-19T11:56:36.141Z,1.25
2023-02-19T11:59:26.388Z,0.98
2023-02-19T12:02:14.532Z,0.63
2023-02-19T12:05:09.734Z,0.80
2023-02-19T12:07:45.206Z,1.00
2023-02-19T12:10:35.255Z,0.93
2023-02-19T12:13:21.992Z,0.87
2023-02-19T12:16:14.933Z,1.02
2023-02-19T12:19:06.866Z,0.77
2023-02-19T12:21:39.564Z,0.70
2023-02-19T12:24:21.581Z,1.20
2023-02-19T12:27:00.115Z,1.67
2023-02-19T12:29:46.879Z,0.80
2023-02-19T12:32:27.743Z,1.38
2023-02-19T12:37:37.759Z,1.10
2023-02-19T12:40:43.732Z,0.98
2023-02-19T12:43:22.113Z,0.90
2023-02-19T12:45:57.477Z,1.10
2023-02-19T12:48:38.971Z,0.90
2023-02-19T12:51:09.898Z,0.98
2023-02-19T12:53:44.112Z,1.10
2023-02-19T12:56:21.048Z,1.05
2023-02-19T12:58:58.906Z,1.42
2023-02-19T13:01:31.934Z,0.88
2023-02-19T13:04:22.572Z,1.20
2023-02-19T13:06:55.808Z,1.58
2023-02-19T13:09:29.752Z,1.30
2023-02-19T13:12:13.911Z,0.90
2023-02-19T13:14:45.605Z,1.05
2023-02-19T13:17:28.582Z,1.17
2023-02-19T13:20:16.653Z,1.08
2023-02-19T13:22:51.960Z,0.90
2023-02-19T13:25:19.579Z,0.93
2023-02-19T13:28:04.258Z,1.13
2023-02-19T13:30:43.047Z,1.48
2023-02-19T13:33:25.101Z,1.00
2023-02-19T13:36:00.333Z,1.00
2023-02-19T13:38:27.857Z,0.80
2023-02-19T13:40:58.779Z,0.93
2023-02-19T13:46:03.942Z,1.17
2023-02-19T13:48:36.108Z,1.35
2023-02-19T13:51:17.721Z,0.95
2023-02-19T13:53:44.228Z,1.10
2023-02-19T13:56:32.268Z,0.75
2023-02-19T13:59:22.033Z,1.38
2023-02-19T14:01:51.436Z,1.17
2023-02-19T14:04:40.155Z,0.90
2023-02-19T14:07:06.780Z,1.20
2023-02-19T14:09:36.287Z,1.15
2023-02-19T14:12:08.842Z,1.05
2023-02-19T14:14:44.818Z,1.00
2023-02-19T14:17:28.354Z,1.20
2023-02-19T14:19:56.155Z,1.02
2023-02-19T14:22:49.772Z,1.00
2023-02-19T14:25:26.288Z,1.65
2023-02-19T14:27:57.639Z,1.23
2023-02-19T14:30:24.495Z,1.05
2023-02-19T14:33:02.801Z,1.05
2023-02-19T14:35:41.342Z,1.30
2023-02-19T14:38:17.041Z,1.73
2023-02-19T14:40:46.337Z,1.20
2023-02-19T14:43:17.735Z,1.50
2023-02-19T14:45:51.386Z,0.90
2023-02-19T14:48:26.422Z,1.60
2023-02-19T14:50:58.131Z,1.67
2023-02-19T14:53:26.947Z,1.13
2023-02-19T14:55:55.902Z,1.20
2023-02-19T14:58:28.694Z,1.50
2023-02-19T15:00:55.131Z,1.10
2023-02-19T15:03:37.831Z,1.23
2023-02-19T15:06:07.997Z,1.10
2023-02-19T15:08:42.488Z,0.95
2023-02-19T15:11:15.199Z,0.88
2023-02-19T15:13:41.797Z,0.85
2023-02-19T15:16:08.354Z,0.88
2023-02-19T15:18:37.790Z,1.55
2023-02-19T15:21:05.449Z,1.77
2023-02-19T15:23:34.494Z,1.38
2023-02-19T15:26:03.215Z,2.20
2023-02-19T15:28:32.612Z,1.50
2023-02-19T15:30:59.105Z,1.77
2023-02-19T15:33:27.423Z,1.35
2023-02-19T15:35:56.768Z,1.15
2023-02-19T15:38:23.755Z,1.30
2023-02-19T15:40:50.978Z,1.30
2023-02-19T15:43:47.285Z,1.30
2023-02-19T15:46:22.606Z,1.42
2023-02-19T15:49:00.838Z,1.42
2023-02-19T15:51:35.635Z,1.00
2023-02-19T15:54:27.261Z,1.30
2023-02-19T15:56:57.450Z,1.83
2023-02-19T15:59:34.761Z,1.70
2023-02-19T16:02:01.459Z,1.50
2023-02-19T16:04:28.014Z,1.40
2023-02-19T16:06:58.564Z,1.73
2023-02-19T16:09:31.590Z,1.48
2023-02-19T16:12:00.366Z,1.30
2023-02-19T16:14:27.020Z,1.10
2023-02-19T16:17:16.349Z,1.10
2023-02-19T16:19:53.004Z,1.40
2023-02-19T16:22:22.512Z,1.27
2023-02-19T16:24:52.823Z,1.50
2023-02-19T16:27:34.904Z,1.42
2023-02-19T16:30:31.566Z,1.48
2023-02-19T16:33:35.587Z,1.38
2023-02-19T16:36:17.130Z,1.50
2023-02-19T16:39:08.813Z,1.42
2023-02-19T16:41:41.223Z,1.30
2023-02-19T16:44:26.273Z,1.52
2023-02-19T16:47:05.231Z,1.35
2023-02-19T16:49:32.298Z,1.50
2023-02-19T16:52:04.198Z,1.65
2023-02-19T16:54:30.898Z,1.55
2023-02-19T16:56:57.693Z,1.48
2023-02-19T16:59:24.122Z,1.40
2023-02-19T17:01:50.903Z,1.27
2023-02-19T17:04:17.474Z,1.90
2023-02-19T17:06:43.964Z,2.20
2023-02-19T17:09:10.663Z,1.48
2023-02-19T17:11:37.216Z,1.67
2023-02-19T17:14:03.848Z,1.70
2023-02-19T17:16:32.125Z,1.38
2023-02-19T17:19:00.836Z,1.67
2023-02-19T17:21:29.486Z,2.00
2023-02-19T17:23:56.680Z,1.83
2023-02-19T17:26:26.290Z,2.10
2023-02-19T17:28:52.731Z,1.65
2023-02-19T17:31:20.150Z,1.83
2023-02-19T17:33:46.854Z,2.33
2023-02-19T17:36:19.164Z,2.88
2023-02-19T17:38:47.199Z,2.47
2023-02-19T17:41:13.858Z,6.47
2023-02-19T17:43:40.839Z,4.30
2023-02-19T17:46:07.301Z,2.72
2023-02-19T17:48:34.695Z,3.28
2023-02-19T17:51:01.338Z,2.85
2023-02-19T17:53:27.777Z,2.85
2023-02-19T17:55:54.275Z,2.67
2023-02-19T17:58:21.067Z,3.03
2023-02-19T18:00:47.843Z,2.03
2023-02-19T18:03:14.524Z,2.67
2023-02-19T18:05:41.018Z,2.90
2023-02-19T18:08:07.730Z,2.40
2023-02-19T18:10:34.100Z,2.95
2023-02-19T18:13:00.509Z,3.35
2023-02-19T18:15:27.066Z,2.80
2023-02-19T18:17:54.425Z,2.63
2023-02-19T18:20:24.251Z,2.65
2023-02-19T18:22:51.584Z,2.47
2023-02-19T18:25:19.473Z,2.53
2023-02-19T18:27:46.540Z,2.42
2023-02-19T18:30:14.264Z,2.00
2023-02-19T18:32:44.318Z,2.28
2023-02-19T18:35:11.526Z,2.22
2023-02-19T18:37:49.071Z,2.95
2023-02-19T18:40:15.716Z,2.80
2023-02-19T18:42:44.674Z,2.53
2023-02-19T18:45:11.555Z,2.53
2023-02-19T18:47:39.432Z,2.72
2023-02-19T18:50:20.084Z,2.90
2023-02-19T18:52:47.750Z,2.72
2023-02-19T18:55:14.481Z,2.47
2023-02-19T18:57:40.921Z,2.85
2023-02-19T19:00:08.289Z,2.17
2023-02-19T19:02:48.401Z,2.20
2023-02-19T19:05:17.935Z,1.98
2023-02-19T19:07:44.345Z,2.33
2023-02-19T19:10:10.841Z,2.75
2023-02-19T19:12:37.308Z,2.15
2023-02-19T19:15:04.118Z,2.55
2023-02-19T19:17:31.837Z,2.50
2023-02-19T19:19:59.690Z,2.13
2023-02-19T19:22:26.239Z,1.90
2023-02-19T19:24:52.656Z,2.70
2023-02-19T19:27:20.222Z,2.45
2023-02-19T19:29:47.453Z,1.80
2023-02-19T19:32:14.261Z,2.00
2023-02-19T19:34:41.017Z,2.63
2023-02-19T19:37:07.479Z,2.63
2023-02-19T19:39:35.299Z,2.50
2023-02-19T19:42:01.721Z,2.67
2023-02-19T19:44:28.414Z,2.55
2023-02-19T19:46:55.773Z,2.17
2023-02-19T19:49:23.305Z,2.92
2023-02-19T19:51:49.915Z,2.63
2023-02-19T19:54:16.814Z,2.67
2023-02-19T19:56:45.000Z,3.00
2023-02-19T19:59:16.274Z,2.95
2023-02-19T20:01:49.952Z,3.05
2023-02-19T20:04:19.083Z,3.38
2023-02-19T20:06:45.526Z,3.40
2023-02-19T20:09:12.973Z,3.45
2023-02-19T20:11:51.968Z,3.45
2023-02-19T20:14:20.177Z,3.47
2023-02-19T20:16:46.814Z,3.45
2023-02-19T20:19:15.534Z,3.50
2023-02-19T20:21:46.236Z,4.00
2023-02-19T20:24:38.736Z,3.65
2023-02-19T20:27:05.177Z,3.33
2023-02-19T20:29:33.602Z,3.10
2023-02-19T20:32:00.625Z,3.15
2023-02-19T20:34:28.114Z,3.20
2023-02-19T20:36:54.919Z,3.42
2023-02-19T20:39:22.175Z,3.30
2023-02-19T20:41:50.757Z,2.65
2023-02-19T20:44:18.294Z,3.20
2023-02-19T20:46:51.365Z,3.33
2023-02-19T20:49:20.878Z,3.13
2023-02-19T20:51:50.307Z,3.08
2023-02-19T20:54:17.995Z,2.92
2023-02-19T20:56:49.360Z,2.80
2023-02-19T20:59:18.262Z,2.90
2023-02-19T21:01:44.750Z,2.90
2023-02-19T21:04:12.042Z,3.22
2023-02-19T21:06:39.636Z,2.97
2023-02-19T21:09:06.376Z,3.13
2023-02-19T21:11:33.460Z,2.78
2023-02-19T21:14:00.262Z,2.45
2023-02-19T21:16:31.155Z,3.40
2023-02-19T21:18:59.013Z,4.15
2023-02-19T21:21:26.428Z,3.20
2023-02-19T21:23:56.591Z,3.47
2023-02-19T21:26:23.576Z,2.97
2023-02-19T21:28:53.322Z,3.50
2023-02-19T21:31:22.416Z,3.15
2023-02-19T21:33:49.993Z,3.40
2023-02-19T21:36:18.447Z,3.15
2023-02-19T21:38:45.227Z,3.20
2023-02-19T21:41:11.696Z,3.30
2023-02-19T21:43:38.112Z,2.90
2023-02-19T21:46:04.682Z,3.78
2023-02-19T21:48:31.506Z,3.10
2023-02-19T21:50:57.977Z,2.85
2023-02-19T21:53:24.404Z,3.00
2023-02-19T21:55:58.226Z,3.15
2023-02-19T21:58:26.356Z,3.00
2023-02-19T22:00:52.913Z,3.20
2023-02-19T22:03:19.647Z,3.60
2023-02-19T22:05:46.390Z,3.85
2023-02-19T22:08:12.925Z,3.83
2023-02-19T22:10:39.678Z,3.83
2023-02-19T22:13:06.269Z,3.80
2023-02-19T22:15:32.670Z,4.15
2023-02-19T22:17:59.389Z,3.90
2023-02-19T22:20:26.117Z,3.70
2023-02-19T22:22:52.600Z,3.40
2023-02-19T22:25:19.128Z,3.63
2023-02-19T22:27:45.836Z,3.65
2023-02-19T22:30:12.479Z,3.35
2023-02-19T22:32:40.513Z,3.60
2023-02-19T22:35:07.221Z,3.67
2023-02-19T22:37:33.729Z,3.40
2023-02-19T22:40:00.692Z,3.83
2023-02-19T22:42:27.122Z,4.07
2023-02-19T22:44:53.759Z,3.92
2023-02-19T22:47:20.166Z,3.60
2023-02-19T22:49:46.701Z,3.42
2023-02-19T22:52:13.522Z,3.80
2023-02-19T22:54:41.145Z,3.45
2023-02-19T22:57:07.527Z,4.45
2023-02-19T22:59:33.996Z,4.03
2023-02-19T23:02:00.674Z,3.95
2023-02-19T23:04:27.215Z,3.83
2023-02-19T23:06:58.375Z,3.08
2023-02-19T23:09:27.922Z,2.92
2023-02-19T23:12:02.003Z,3.35
2023-02-19T23:14:28.358Z,3.33
2023-02-19T23:16:54.847Z,3.53
2023-02-19T23:19:21.434Z,3.45
2023-02-19T23:21:48.260Z,2.88
2023-02-19T23:24:15.418Z,3.00
2023-02-19T23:26:46.962Z,3.45
2023-02-19T23:29:21.172Z,3.22
2023-02-19T23:31:47.795Z,3.38
2023-02-19T23:34:14.551Z,3.05
2023-02-19T23:36:42.848Z,2.80
2023-02-19T23:39:11.031Z,3.58
2023-02-19T23:41:37.823Z,3.67
2023-02-19T23:44:06.868Z,3.03
2023-02-19T23:46:33.329Z,2.97
2023-02-19T23:48:59.722Z,3.00
2023-02-19T23:51:26.400Z,2.70
2023-02-19T23:53:53.118Z,3.08
2023-02-19T23:56:24.386Z,3.38
2023-02-19T23:58:50.857Z,2.80
